Kirkconnel, United Kingdom
Current Conditions -  °F | °C
As of 5:20 PM on Friday 19 Dec 2014 (Local Time) from EGPK Reporting Station
Light Rain Light Rain  
Wind Chill: 33°   Ceiling: Unl
Heat Index: 43°   Visibility: 6mi
Dew Point: 37°   Wind: 25mph
Humidity: 81%   Direction: 280°W
Pressure: 29.8"   Gusts: 38mph
Location:  55.39°N, 4°W
Report Text: EGPK 191720Z 28022G33KT 9999 -RA FEW007 FEW012CB SCT020 06/03 Q1009
Loading
Personal Weather Stations






























Interactive Weather Map New forecast layout! Learn more

10-Day Weather Forecast

Advertisements
Track Severe Weather on mobile